ロングイェールビーン の空港の天気 - METARとTAF

スヴァールバル空港 ( ENSB / LYR ) - スヴァールバル諸島・ヤンマイエン島 ロングイェールビーン
飛行場実況気象(Metar)
観測時間04/27 06:50 CEST (04/27 04:50 UTC)
風向・風速東南東 5m/s
視程10km以上
天気現象
少しの雲 雲底高度 760m
気温-12℃
湿度66%
気圧1013hPa
METARENSB 270450Z 11010KT 9999 FEW025 M12/M17 Q1013 RMK WIND 1400FT 00000KT
過去の天気等 Google飛行場航空写真 Wunderground天気予報

過去48時間のMETAR

飛行場予報(TAF)
発表時間: -
TAF ENSB 2700/2724 11009KT 9999 FEW020